Time;durP1;ratioP1;P1;durP2;ratioP2;P2;SDS_P1;SDS_P2;PMS_P1;PMS_P2;Temp;Humidity;BMP_temperature;BMP_pressure;BME280_temperature;BME280_humidity;BME280_pressure;Samples;Min_cycle;Max_cycle;Signal;HPM_P1;HPM_P2
2023/07/31 00:00:12;;;;;;;1.80;0.50;;;17.00;99.90;;;;;;5017215;28;20179;-74
2023/07/31 00:02:38;;;;;;;1.88;0.47;;;17.10;99.90;;;;;;5031147;28;20212;-75
2023/07/31 00:05:04;;;;;;;2.33;0.70;;;17.00;99.90;;;;;;5021364;28;20174;-75
2023/07/31 00:07:30;;;;;;;0.50;0.30;;;17.10;99.90;;;;;;5009783;28;20538;-74
2023/07/31 00:09:58;;;;;;;0.63;0.43;;;17.10;99.90;;;;;;5015933;28;20193;-78
2023/07/31 00:15:46;;;;;;;1.30;0.43;;;17.10;99.90;;;;;;5044982;28;20192;-77
2023/07/31 00:18:11;;;;;;;1.73;0.60;;;17.10;99.90;;;;;;5016938;28;20213;-75
2023/07/31 00:20:37;;;;;;;2.35;0.70;;;17.10;99.90;;;;;;5032435;28;20644;-75
2023/07/31 00:23:02;;;;;;;2.15;0.60;;;16.70;99.90;;;;;;5042599;28;20268;-75
2023/07/31 00:25:28;;;;;;;0.80;0.50;;;17.10;99.90;;;;;;5049540;28;20185;-74
2023/07/31 00:27:54;;;;;;;1.25;0.52;;;;;;;;;;5038405;28;20190;-74
2023/07/31 00:30:20;;;;;;;2.80;0.77;;;17.10;99.90;;;;;;5030433;28;20648;-74
2023/07/31 00:32:45;;;;;;;1.45;0.52;;;17.10;99.90;;;;;;5028964;28;20174;-75
2023/07/31 00:35:11;;;;;;;0.75;0.30;;;17.10;99.90;;;;;;5030540;28;20629;-78
2023/07/31 00:37:36;;;;;;;1.25;0.43;;;17.30;99.90;;;;;;5033991;28;20261;-77
2023/07/31 00:40:03;;;;;;;1.73;0.50;;;17.10;99.90;;;;;;5034214;28;20719;-75
2023/07/31 00:42:29;;;;;;;1.10;0.50;;;17.10;99.90;;;;;;5034370;28;20256;-76
2023/07/31 00:44:54;;;;;;;2.05;0.45;;;17.10;99.90;;;;;;5033939;28;20645;-76
2023/07/31 00:47:20;;;;;;;1.48;0.60;;;17.10;99.90;;;;;;5032759;28;20188;-75
2023/07/31 00:49:46;;;;;;;1.08;0.50;;;17.20;99.90;;;;;;5032765;28;20767;-76
2023/07/31 00:52:11;;;;;;;2.28;0.57;;;17.20;99.90;;;;;;5032841;28;20261;-77
2023/07/31 00:54:37;;;;;;;4.68;0.45;;;17.20;99.90;;;;;;5033909;28;20225;-80
2023/07/31 00:57:03;;;;;;;0.73;0.47;;;17.20;99.90;;;;;;5033985;28;20292;-79
2023/07/31 00:59:29;;;;;;;0.80;0.47;;;17.20;99.90;;;;;;5033931;28;20550;-80
2023/07/31 01:01:54;;;;;;;0.50;0.30;;;17.20;99.90;;;;;;5034992;28;20166;-80
2023/07/31 01:04:21;;;;;;;1.38;0.60;;;17.20;99.90;;;;;;5034067;28;20587;-77
2023/07/31 01:07:16;;;;;;;1.95;0.52;;;17.20;99.90;;;;;;5033941;28;20249;-79
2023/07/31 01:10:11;;;;;;;0.85;0.50;;;17.10;99.90;;;;;;5033966;28;20178;-78
2023/07/31 01:12:38;;;;;;;2.05;0.40;;;17.10;99.90;;;;;;5033651;28;20185;-78
2023/07/31 01:15:11;;;;;;;0.90;0.40;;;16.30;99.90;;;;;;5032262;28;20177;-77
2023/07/31 01:17:38;;;;;;;2.47;0.30;;;17.20;99.90;;;;;;5033552;28;20312;-76
2023/07/31 01:20:10;;;;;;;3.42;0.40;;;17.10;99.90;;;;;;5032342;28;20225;-77
2023/07/31 01:23:13;;;;;;;1.75;0.30;;;17.20;99.90;;;;;;5032115;28;20672;-78
2023/07/31 01:26:06;;;;;;;0.70;0.30;;;17.20;99.90;;;;;;5033676;28;20177;-77
2023/07/31 01:28:56;;;;;;;1.63;0.30;;;17.20;99.90;;;;;;5034787;28;20180;-77
2023/07/31 01:31:24;;;;;;;0.52;0.30;;;17.20;99.90;;;;;;5049022;28;20196;-78
2023/07/31 01:33:53;;;;;;;1.13;0.40;;;17.40;99.90;;;;;;5052554;28;20189;-78
2023/07/31 01:36:19;;;;;;;0.75;0.30;;;17.20;99.90;;;;;;5034115;28;20218;-81
2023/07/31 01:38:45;;;;;;;1.08;0.40;;;17.20;99.90;;;;;;5037850;28;20259;-77
2023/07/31 01:41:11;;;;;;;0.22;0.22;;;17.20;99.90;;;;;;5033498;28;20174;-80
2023/07/31 01:43:36;;;;;;;0.65;0.20;;;17.20;99.90;;;;;;5035915;28;20174;-80
2023/07/31 01:46:02;;;;;;;0.75;0.17;;;17.20;99.90;;;;;;5033106;28;20195;-79
2023/07/31 01:48:28;;;;;;;1.02;0.20;;;17.20;99.90;;;;;;5031482;28;20177;-78
2023/07/31 01:50:53;;;;;;;2.10;0.30;;;17.30;99.90;;;;;;5031834;28;20548;-79
2023/07/31 01:53:19;;;;;;;0.30;0.20;;;17.30;99.90;;;;;;5033112;28;20181;-81
2023/07/31 01:55:44;;;;;;;0.32;0.20;;;17.30;99.90;;;;;;5031875;28;20644;-79
2023/07/31 01:58:10;;;;;;;0.25;0.20;;;17.30;99.90;;;;;;5032869;28;20259;-76
2023/07/31 02:00:35;;;;;;;0.85;0.30;;;17.30;99.90;;;;;;5032807;28;20241;-77
2023/07/31 02:03:01;;;;;;;2.50;0.52;;;17.30;99.90;;;;;;5032948;28;20545;-80
2023/07/31 02:05:27;;;;;;;0.65;0.40;;;17.30;99.90;;;;;;5032682;28;20925;-75
2023/07/31 02:07:52;;;;;;;5.10;0.80;;;17.40;99.90;;;;;;5032711;28;20185;-76
2023/07/31 02:10:18;;;;;;;3.38;0.70;;;17.40;99.90;;;;;;5032815;28;20235;-76
2023/07/31 02:12:43;;;;;;;3.38;0.80;;;17.50;99.90;;;;;;5031536;28;20228;-77
2023/07/31 02:15:09;;;;;;;6.40;1.20;;;17.50;99.90;;;;;;5032641;28;20261;-75
2023/07/31 02:17:35;;;;;;;4.38;0.88;;;17.50;99.90;;;;;;5033478;28;20746;-78
2023/07/31 02:20:01;;;;;;;5.05;1.20;;;17.50;99.90;;;;;;5032446;28;20192;-79
2023/07/31 02:22:26;;;;;;;6.57;1.40;;;17.60;99.90;;;;;;5032790;28;20565;-78
2023/07/31 02:24:52;;;;;;;8.90;1.90;;;17.60;99.90;;;;;;5032589;28;20541;-79
2023/07/31 02:27:17;;;;;;;5.20;1.38;;;17.50;99.90;;;;;;5032522;28;20181;-78
2023/07/31 02:29:43;;;;;;;8.40;1.58;;;17.50;99.90;;;;;;5030900;28;20629;-78
2023/07/31 02:32:09;;;;;;;5.70;1.52;;;17.50;99.90;;;;;;5033260;28;20170;-78
2023/07/31 02:34:34;;;;;;;9.10;2.08;;;17.50;99.90;;;;;;5033055;28;20706;-74
2023/07/31 02:37:00;;;;;;;6.10;1.83;;;17.40;99.90;;;;;;5033623;28;20221;-74
2023/07/31 02:39:26;;;;;;;10.63;2.38;;;17.40;99.90;;;;;;5024919;28;20179;-75
2023/07/31 02:41:51;;;;;;;11.68;2.17;;;17.40;99.90;;;;;;5012267;28;20660;-75
2023/07/31 02:44:17;;;;;;;11.95;2.30;;;17.40;99.90;;;;;;5012156;28;20183;-73
2023/07/31 02:46:42;;;;;;;11.38;2.13;;;17.40;99.90;;;;;;5012218;28;20167;-75
2023/07/31 02:49:08;;;;;;;10.98;2.45;;;17.40;99.90;;;;;;5012072;28;20574;-75
2023/07/31 02:51:34;;;;;;;10.60;2.03;;;17.40;99.90;;;;;;5043842;28;20212;-74
2023/07/31 02:53:59;;;;;;;9.35;2.22;;;17.40;99.90;;;;;;5012062;28;20250;-74
2023/07/31 02:56:25;;;;;;;11.38;2.15;;;17.40;99.90;;;;;;5012112;28;20645;-74
2023/07/31 02:58:50;;;;;;;11.57;2.47;;;17.30;99.90;;;;;;5009864;28;20206;-73
2023/07/31 03:01:16;;;;;;;12.43;2.88;;;17.30;99.90;;;;;;5011997;28;20163;-75
2023/07/31 03:03:42;;;;;;;14.00;2.90;;;17.30;99.90;;;;;;5011901;28;20293;-76
2023/07/31 03:06:07;;;;;;;9.63;2.38;;;17.30;99.90;;;;;;5011995;28;20265;-74
2023/07/31 03:08:33;;;;;;;12.73;2.95;;;17.30;99.90;;;;;;5011848;28;20192;-75
2023/07/31 03:10:59;;;;;;;14.35;3.20;;;17.30;99.90;;;;;;5026821;28;20175;-75
2023/07/31 03:13:24;;;;;;;12.32;2.85;;;17.30;99.90;;;;;;5011615;28;20171;-74
2023/07/31 03:15:50;;;;;;;8.18;2.10;;;17.40;99.90;;;;;;5011676;28;20162;-74
2023/07/31 03:18:16;;;;;;;10.73;3.08;;;17.40;99.90;;;;;;5011587;28;20214;-73
2023/07/31 03:20:44;;;;;;;14.25;2.60;;;17.40;99.90;;;;;;5011494;28;20534;-74
2023/07/31 03:23:10;;;;;;;7.68;2.50;;;17.40;99.90;;;;;;5011543;28;20257;-75
2023/07/31 03:25:36;;;;;;;11.10;2.15;;;17.30;99.90;;;;;;5011124;28;20246;-75
2023/07/31 03:28:01;;;;;;;10.13;2.47;;;17.30;99.90;;;;;;5011587;28;20530;-74
2023/07/31 03:30:27;;;;;;;13.15;2.67;;;17.30;99.90;;;;;;5011500;28;20170;-75
2023/07/31 03:32:52;;;;;;;10.50;2.40;;;17.30;99.90;;;;;;5011689;28;20711;-75
2023/07/31 03:35:18;;;;;;;11.90;2.55;;;17.30;99.90;;;;;;5011310;28;20182;-76
2023/07/31 03:37:44;;;;;;;17.05;2.78;;;17.30;99.90;;;;;;5021305;28;20308;-77
2023/07/31 03:40:10;;;;;;;17.52;3.13;;;17.20;99.90;;;;;;5031168;28;20174;-75
2023/07/31 03:42:35;;;;;;;12.75;2.97;;;17.20;99.90;;;;;;5031310;28;20170;-75
2023/07/31 03:45:01;;;;;;;11.73;3.00;;;17.20;99.90;;;;;;5031172;28;20166;-78
2023/07/31 03:47:27;;;;;;;12.75;3.22;;;17.20;99.90;;;;;;5031199;28;20645;-76
2023/07/31 03:49:53;;;;;;;12.25;3.33;;;17.20;99.90;;;;;;5031179;28;20265;-76
2023/07/31 03:52:18;;;;;;;9.23;2.50;;;17.20;99.90;;;;;;5041990;28;20649;-77
2023/07/31 03:54:44;;;;;;;11.02;2.92;;;17.00;99.90;;;;;;5040199;28;20188;-75
2023/07/31 03:57:11;;;;;;;7.32;2.60;;;17.00;99.90;;;;;;5030943;28;20668;-76
2023/07/31 03:59:38;;;;;;;9.25;2.78;;;18.10;99.90;;;;;;5034546;28;20256;-78
2023/07/31 04:02:04;;;;;;;10.50;2.88;;;16.90;99.90;;;;;;5049149;28;20188;-74
2023/07/31 04:04:30;;;;;;;9.30;2.97;;;;;;;;;;5048978;28;20178;-77
2023/07/31 04:06:56;;;;;;;7.03;2.47;;;16.80;99.90;;;;;;5043302;28;20583;-76
2023/07/31 04:09:21;;;;;;;9.80;2.47;;;16.80;99.90;;;;;;5050576;28;20260;-73
2023/07/31 04:11:47;;;;;;;7.03;2.63;;;16.80;99.90;;;;;;5055207;28;20173;-76
2023/07/31 04:14:12;;;;;;;13.93;4.22;;;16.80;99.90;;;;;;5052339;28;20268;-76
2023/07/31 04:16:38;;;;;;;10.55;3.05;;;16.80;99.90;;;;;;5038603;28;20644;-75
2023/07/31 04:19:04;;;;;;;10.90;3.50;;;16.80;99.90;;;;;;5054608;28;20271;-74
2023/07/31 04:21:29;;;;;;;8.05;2.70;;;16.80;99.90;;;;;;5054167;28;20174;-76
2023/07/31 04:23:56;;;;;;;10.18;3.35;;;16.90;99.90;;;;;;5054530;28;20181;-80
2023/07/31 04:26:21;;;;;;;16.73;3.15;;;16.90;99.90;;;;;;5039687;28;20213;-76
2023/07/31 04:28:47;;;;;;;7.32;3.10;;;17.00;99.90;;;;;;5034609;28;20213;-76
2023/07/31 04:31:13;;;;;;;12.68;3.38;;;16.90;99.90;;;;;;5033340;28;20651;-77
2023/07/31 04:33:38;;;;;;;10.35;3.42;;;16.80;99.90;;;;;;5035383;28;20227;-77
2023/07/31 04:36:05;;;;;;;11.50;3.45;;;16.80;99.90;;;;;;5034276;28;20301;-78
2023/07/31 04:38:31;;;;;;;7.50;3.47;;;16.80;99.90;;;;;;5034548;28;20209;-75
2023/07/31 04:40:56;;;;;;;10.73;3.97;;;16.80;99.90;;;;;;5026650;28;20259;-77
2023/07/31 04:43:22;;;;;;;10.45;3.55;;;16.90;99.90;;;;;;5028937;28;20659;-74
2023/07/31 04:45:48;;;;;;;15.10;4.43;;;17.00;99.90;;;;;;5034355;28;20169;-76
2023/07/31 04:48:14;;;;;;;14.68;4.72;;;17.30;99.90;;;;;;5034396;28;20170;-77
2023/07/31 04:50:40;;;;;;;12.65;3.85;;;16.90;99.90;;;;;;5034857;28;20170;-79
2023/07/31 04:53:06;;;;;;;12.25;3.97;;;;;;;;;;5032694;28;20185;-75
2023/07/31 04:55:32;;;;;;;9.13;3.72;;;;;;;;;;5033898;28;20200;-76
2023/07/31 04:57:59;;;;;;;14.93;4.53;;;16.80;99.90;;;;;;5033836;28;20213;-76
2023/07/31 05:00:24;;;;;;;12.38;3.80;;;17.00;99.90;;;;;;5033823;28;20170;-74
2023/07/31 05:02:50;;;;;;;10.55;4.00;;;;;;;;;;5033854;28;20633;-74
2023/07/31 05:05:16;;;;;;;12.43;4.35;;;;;;;;;;5033825;28;20201;-74
2023/07/31 05:07:42;;;;;;;13.02;3.78;;;16.80;99.90;;;;;;5033757;28;20248;-75
2023/07/31 05:10:08;;;;;;;13.63;3.92;;;16.90;99.90;;;;;;5033691;28;20215;-74
2023/07/31 05:12:34;;;;;;;17.25;4.43;;;17.10;99.90;;;;;;5033528;28;20196;-74
2023/07/31 05:15:00;;;;;;;12.82;3.83;;;;;;;;;;5033559;28;20170;-74
2023/07/31 05:17:25;;;;;;;10.75;3.95;;;16.70;99.90;;;;;;5033439;28;20263;-75
2023/07/31 05:19:51;;;;;;;16.33;4.43;;;16.90;99.90;;;;;;5033468;28;20186;-74
2023/07/31 05:22:17;;;;;;;11.43;4.00;;;16.90;99.90;;;;;;5032537;28;20702;-74
2023/07/31 05:24:42;;;;;;;11.15;3.70;;;16.90;99.90;;;;;;5033373;28;20180;-74
2023/07/31 05:27:09;;;;;;;10.70;4.50;;;16.90;99.90;;;;;;5033470;28;20202;-74
2023/07/31 05:29:35;;;;;;;12.27;3.75;;;;;;;;;;5033220;28;20182;-74
2023/07/31 05:32:01;;;;;;;18.25;3.92;;;16.90;99.90;;;;;;5031658;28;20189;-74
2023/07/31 05:34:27;;;;;;;10.15;3.92;;;;;;;;;;5035851;28;20264;-74
2023/07/31 05:36:53;;;;;;;12.75;4.60;;;16.90;99.90;;;;;;5042443;28;20295;-74
2023/07/31 05:39:19;;;;;;;12.95;4.07;;;16.90;99.90;;;;;;5032961;28;20636;-74
2023/07/31 05:41:45;;;;;;;13.00;3.95;;;16.90;99.90;;;;;;5032876;28;20166;-74
2023/07/31 05:44:11;;;;;;;10.68;3.75;;;;;;;;;;5032907;28;20174;-74
2023/07/31 05:46:37;;;;;;;11.50;4.25;;;16.90;99.90;;;;;;5031683;28;20201;-75
2023/07/31 05:49:03;;;;;;;10.23;3.63;;;16.80;99.90;;;;;;5032819;28;20620;-76
2023/07/31 05:51:28;;;;;;;9.05;3.80;;;16.60;99.90;;;;;;5032856;28;20176;-74
2023/07/31 05:53:54;;;;;;;10.95;3.35;;;;;;;;;;5032696;28;20200;-76
2023/07/31 05:56:20;;;;;;;12.73;3.90;;;16.80;99.90;;;;;;5033007;28;20224;-77
2023/07/31 05:58:45;;;;;;;8.65;3.40;;;16.80;99.90;;;;;;5032782;28;20355;-74
2023/07/31 06:01:11;;;;;;;9.20;3.42;;;16.90;99.90;;;;;;5032710;28;20681;-75
2023/07/31 06:03:37;;;;;;;5.40;2.88;;;17.00;99.90;;;;;;5034703;28;20636;-73
2023/07/31 06:06:02;;;;;;;9.40;3.95;;;16.90;99.90;;;;;;5036785;28;20180;-74
2023/07/31 06:08:28;;;;;;;11.65;3.05;;;16.80;99.90;;;;;;5032787;28;20260;-76
2023/07/31 06:10:53;;;;;;;11.90;3.28;;;17.10;99.90;;;;;;5032589;28;20573;-74
2023/07/31 06:13:19;;;;;;;7.72;2.97;;;;;;;;;;5032610;28;20178;-74
2023/07/31 06:15:45;;;;;;;10.40;3.10;;;;;;;;;;5032602;28;20237;-74
2023/07/31 06:18:11;;;;;;;12.13;3.88;;;17.00;99.90;;;;;;5032497;28;20205;-73
2023/07/31 06:20:37;;;;;;;10.30;3.20;;;17.00;99.90;;;;;;5032395;28;20249;-73
2023/07/31 06:23:03;;;;;;;8.60;3.10;;;17.00;99.90;;;;;;5032535;28;20192;-73
2023/07/31 06:25:29;;;;;;;9.38;3.10;;;17.00;99.90;;;;;;5032663;28;20534;-74
2023/07/31 06:27:54;;;;;;;10.25;3.40;;;17.00;99.90;;;;;;5032268;28;20178;-74
2023/07/31 06:30:20;;;;;;;12.27;2.95;;;17.00;99.90;;;;;;5030961;28;20177;-74
2023/07/31 06:32:46;;;;;;;9.65;3.08;;;17.10;99.90;;;;;;5031264;28;20182;-73
2023/07/31 06:35:11;;;;;;;6.95;2.75;;;17.10;99.90;;;;;;5030883;28;20170;-72
2023/07/31 06:37:40;;;;;;;9.65;2.60;;;17.10;99.90;;;;;;5039376;28;20347;-73
2023/07/31 06:40:08;;;;;;;11.98;3.35;;;17.20;99.90;;;;;;5036091;28;20170;-73
2023/07/31 06:42:35;;;;;;;9.30;3.10;;;17.20;99.90;;;;;;5032784;28;20177;-73
2023/07/31 06:45:01;;;;;;;5.57;1.98;;;17.30;99.90;;;;;;5032238;28;20212;-74
2023/07/31 06:47:26;;;;;;;7.20;2.90;;;17.30;99.90;;;;;;5047918;28;20219;-73
2023/07/31 06:49:52;;;;;;;10.02;2.70;;;;;;;;;;5033318;28;20178;-74
2023/07/31 06:52:18;;;;;;;8.55;2.38;;;17.30;99.90;;;;;;5031597;28;20170;-73
2023/07/31 06:54:44;;;;;;;9.48;2.53;;;17.70;99.90;;;;;;5042664;28;20188;-75
2023/07/31 06:57:10;;;;;;;10.82;2.45;;;17.50;99.90;;;;;;5031570;28;20173;-74
2023/07/31 06:59:35;;;;;;;9.18;2.50;;;17.70;99.90;;;;;;5030738;28;20174;-73
2023/07/31 07:02:01;;;;;;;11.00;2.72;;;17.70;99.90;;;;;;5031660;28;20174;-73
2023/07/31 07:04:27;;;;;;;8.98;2.90;;;17.70;99.90;;;;;;5031615;28;20182;-72
2023/07/31 07:06:52;;;;;;;9.52;2.22;;;17.80;99.90;;;;;;5034575;28;20535;-72
2023/07/31 07:09:18;;;;;;;7.60;2.58;;;17.80;99.90;;;;;;5051356;28;20318;-72
2023/07/31 07:11:43;;;;;;;8.15;2.80;;;17.80;99.90;;;;;;5051337;28;20174;-72
2023/07/31 07:14:10;;;;;;;13.07;3.38;;;17.80;99.90;;;;;;5051607;28;20247;-72
2023/07/31 07:16:35;;;;;;;7.53;2.78;;;17.80;99.90;;;;;;5049702;28;20272;-73
2023/07/31 07:19:01;;;;;;;6.40;2.30;;;17.70;99.90;;;;;;5051167;28;20303;-73
2023/07/31 07:21:27;;;;;;;10.10;2.20;;;17.90;99.90;;;;;;5050713;28;20178;-74
2023/07/31 07:23:52;;;;;;;7.40;2.50;;;17.90;99.90;;;;;;5039553;28;20184;-76
2023/07/31 07:26:18;;;;;;;7.95;2.60;;;18.00;99.90;;;;;;5050963;28;20177;-74
2023/07/31 07:28:43;;;;;;;10.90;2.15;;;18.00;99.90;;;;;;5048009;28;20177;-72
2023/07/31 07:31:09;;;;;;;5.13;2.05;;;18.00;99.90;;;;;;5045189;28;20196;-74
2023/07/31 07:33:34;;;;;;;9.35;2.35;;;18.00;99.90;;;;;;5039895;28;20257;-73
2023/07/31 07:36:01;;;;;;;8.18;2.08;;;18.20;99.90;;;;;;5030775;28;20221;-73
2023/07/31 07:38:27;;;;;;;4.07;1.75;;;18.10;99.90;;;;;;5029891;28;20217;-74
2023/07/31 07:40:53;;;;;;;6.90;1.70;;;18.10;99.90;;;;;;5049827;28;20540;-74
2023/07/31 07:43:19;;;;;;;5.22;1.48;;;18.10;99.90;;;;;;5049420;28;20589;-76
2023/07/31 07:45:44;;;;;;;7.68;1.73;;;18.20;99.90;;;;;;5036161;28;20165;-74
2023/07/31 07:48:10;;;;;;;5.25;1.38;;;18.20;99.90;;;;;;5029853;28;20304;-75
2023/07/31 07:50:38;;;;;;;6.88;1.75;;;18.10;99.90;;;;;;5031020;28;20536;-74
2023/07/31 07:53:03;;;;;;;5.05;1.65;;;18.00;99.90;;;;;;5017105;28;20191;-73
2023/07/31 07:55:29;;;;;;;4.35;1.48;;;17.90;99.90;;;;;;5030904;28;20174;-73
2023/07/31 07:57:54;;;;;;;7.93;1.90;;;17.90;99.90;;;;;;5029268;28;20206;-73
2023/07/31 08:00:20;;;;;;;6.95;1.98;;;17.80;99.90;;;;;;5044722;28;20182;-74
2023/07/31 08:02:46;;;;;;;5.22;1.80;;;17.90;99.90;;;;;;5029025;28;20182;-73
2023/07/31 08:05:12;;;;;;;6.57;2.30;;;17.90;99.90;;;;;;5030745;28;20176;-73
2023/07/31 08:07:37;;;;;;;11.00;2.25;;;17.90;99.90;;;;;;5030842;28;20189;-73
2023/07/31 08:10:03;;;;;;;7.80;2.53;;;17.90;99.90;;;;;;5034147;28;20173;-72
2023/07/31 08:12:29;;;;;;;7.43;1.73;;;17.90;99.90;;;;;;5038892;28;20185;-73
2023/07/31 08:14:54;;;;;;;7.28;2.05;;;17.90;99.90;;;;;;5050516;28;20177;-73
2023/07/31 08:17:20;;;;;;;15.02;2.45;;;17.80;99.90;;;;;;5049901;28;20205;-73
2023/07/31 08:19:46;;;;;;;6.38;1.88;;;17.80;99.90;;;;;;5042821;28;20239;-73
2023/07/31 08:22:11;;;;;;;9.23;2.15;;;17.80;99.90;;;;;;5041155;28;20174;-73
2023/07/31 08:24:37;;;;;;;6.55;2.08;;;17.80;99.90;;;;;;5048836;28;20181;-72
2023/07/31 08:27:03;;;;;;;5.70;1.98;;;17.90;99.90;;;;;;5050201;28;20178;-73
2023/07/31 08:29:28;;;;;;;8.70;2.38;;;17.90;99.90;;;;;;5047076;28;20664;-73
2023/07/31 08:31:54;;;;;;;12.80;2.80;;;17.90;99.90;;;;;;5036023;28;20560;-71
2023/07/31 08:34:19;;;;;;;11.38;2.70;;;18.10;99.90;;;;;;5040338;28;20180;-71
2023/07/31 08:36:45;;;;;;;11.60;2.88;;;18.00;99.90;;;;;;5030159;28;20218;-72
2023/07/31 08:39:10;;;;;;;8.07;2.40;;;18.00;99.90;;;;;;5033674;28;20221;-72
2023/07/31 08:41:39;;;;;;;14.38;3.35;;;17.70;99.90;;;;;;5030241;28;20712;-69
2023/07/31 08:44:05;;;;;;;11.15;3.13;;;18.10;99.90;;;;;;5030261;28;20193;-69
2023/07/31 08:46:32;;;;;;;13.65;3.70;;;18.10;99.90;;;;;;5022193;28;20175;-70
2023/07/31 08:48:59;;;;;;;16.80;4.03;;;18.20;99.90;;;;;;5037104;28;20268;-70
2023/07/31 08:51:25;;;;;;;16.00;3.90;;;18.40;99.90;;;;;;5050067;28;20168;-72
2023/07/31 08:53:53;;;;;;;12.07;3.88;;;18.20;99.90;;;;;;5039515;28;20182;-70
2023/07/31 08:56:19;;;;;;;17.27;4.13;;;18.10;99.90;;;;;;5030286;28;20220;-70
2023/07/31 08:58:47;;;;;;;14.63;4.32;;;18.00;99.90;;;;;;5033898;28;20206;-72
2023/07/31 09:01:13;;;;;;;19.45;4.45;;;18.10;99.90;;;;;;5046997;28;20604;-73
2023/07/31 09:03:40;;;;;;;16.98;4.95;;;18.10;99.90;;;;;;5053684;28;20197;-71
2023/07/31 09:06:07;;;;;;;19.83;4.50;;;18.20;99.90;;;;;;5053678;28;20733;-71
2023/07/31 09:08:33;;;;;;;13.98;4.57;;;18.30;99.90;;;;;;5042143;28;20257;-70
2023/07/31 09:11:05;;;;;;;22.75;5.10;;;18.30;99.90;;;;;;5033648;28;20166;-70
2023/07/31 09:13:32;;;;;;;25.67;5.50;;;18.40;99.90;;;;;;5051389;28;20173;-71
2023/07/31 09:15:58;;;;;;;22.15;5.18;;;18.30;99.90;;;;;;5051745;28;20193;-72
2023/07/31 09:18:23;;;;;;;24.15;4.60;;;18.20;99.90;;;;;;5053197;28;20216;-71
2023/07/31 09:21:03;;;;;;;17.73;4.32;;;17.90;99.90;;;;;;5053277;28;20604;-72
2023/07/31 09:23:41;;;;;;;21.05;5.20;;;17.80;99.90;;;;;;5047027;28;20644;-72
2023/07/31 09:26:07;;;;;;;21.30;5.32;;;17.50;99.90;;;;;;5047926;28;20184;-72
2023/07/31 09:28:32;;;;;;;14.65;4.72;;;17.70;99.90;;;;;;5052959;28;20181;-72
2023/07/31 09:30:58;;;;;;;18.45;4.93;;;17.70;99.90;;;;;;5053020;28;20303;-73
2023/07/31 09:33:23;;;;;;;20.52;5.57;;;17.70;99.90;;;;;;5051743;28;20221;-72
2023/07/31 09:35:49;;;;;;;18.35;5.35;;;17.80;99.90;;;;;;5052847;28;20733;-72
2023/07/31 09:38:15;;;;;;;16.70;4.85;;;17.90;99.90;;;;;;5052812;28;20201;-72
2023/07/31 09:40:43;;;;;;;22.00;5.47;;;18.00;99.90;;;;;;5052907;28;20662;-72
2023/07/31 09:43:17;;;;;;;16.25;5.05;;;18.10;99.90;;;;;;5050289;28;20208;-72
2023/07/31 09:45:44;;;;;;;18.48;5.47;;;18.40;99.90;;;;;;5051134;28;20176;-73
2023/07/31 09:48:17;;;;;;;20.17;5.30;;;18.80;99.90;;;;;;5050773;28;20181;-73
2023/07/31 09:50:48;;;;;;;27.27;5.72;;;19.00;99.90;;;;;;5050804;28;20174;-73
2023/07/31 09:53:14;;;;;;;16.92;5.10;;;19.30;99.90;;;;;;5051323;28;20527;-73
2023/07/31 09:55:41;;;;;;;28.50;6.25;;;19.10;99.90;;;;;;5050679;28;20197;-73
2023/07/31 09:58:11;;;;;;;21.75;5.88;;;19.20;99.90;;;;;;5051517;28;20212;-73
2023/07/31 10:00:38;;;;;;;22.80;5.63;;;19.20;99.90;;;;;;5052917;28;20181;-75
2023/07/31 10:03:08;;;;;;;22.88;5.72;;;19.10;99.90;;;;;;5053416;28;20170;-74
2023/07/31 10:05:37;;;;;;;26.30;6.15;;;18.80;99.90;;;;;;5052622;28;20180;-73
2023/07/31 10:08:03;;;;;;;23.30;5.18;;;18.90;99.90;;;;;;5052190;28;20173;-73
2023/07/31 10:10:29;;;;;;;25.00;5.80;;;18.50;99.90;;;;;;5051107;28;20655;-74
2023/07/31 10:12:57;;;;;;;16.65;5.68;;;18.30;99.90;;;;;;5052216;28;20173;-72
2023/07/31 10:15:23;;;;;;;20.58;5.32;;;18.40;99.90;;;;;;5052242;28;20540;-72
2023/07/31 10:17:50;;;;;;;21.73;5.72;;;18.30;99.90;;;;;;5052012;28;20549;-71
2023/07/31 10:20:16;;;;;;;25.48;5.43;;;18.20;99.90;;;;;;5052213;28;20177;-72
2023/07/31 10:22:43;;;;;;;20.27;5.28;;;18.10;99.90;;;;;;5052254;28;20185;-72
2023/07/31 10:25:09;;;;;;;23.52;5.28;;;17.80;99.90;;;;;;5052194;28;20170;-72
2023/07/31 10:27:37;;;;;;;21.10;5.28;;;18.00;99.90;;;;;;5052043;28;20165;-72
2023/07/31 10:30:05;;;;;;;25.13;5.53;;;18.10;99.90;;;;;;5052030;28;20227;-72
2023/07/31 10:32:31;;;;;;;16.73;4.70;;;18.40;99.90;;;;;;5052122;28;20184;-73
2023/07/31 10:34:57;;;;;;;19.15;4.22;;;18.50;99.90;;;;;;5050601;28;20537;-73
2023/07/31 10:37:27;;;;;;;25.70;5.80;;;18.50;99.90;;;;;;5051539;28;20846;-72
2023/07/31 10:40:00;;;;;;;23.10;5.65;;;18.40;99.90;;;;;;5051871;28;20173;-72
2023/07/31 10:42:44;;;;;;;25.23;5.32;;;18.20;99.90;;;;;;5051671;28;20185;-72
2023/07/31 10:45:11;;;;;;;20.88;5.05;;;18.30;99.90;;;;;;5051596;28;20168;-72
2023/07/31 10:47:38;;;;;;;22.20;6.00;;;18.30;99.90;;;;;;5050290;28;20173;-73
2023/07/31 10:50:16;;;;;;;21.25;5.18;;;18.30;99.90;;;;;;5050417;28;20211;-75
2023/07/31 10:52:46;;;;;;;23.20;5.15;;;18.00;99.90;;;;;;5019375;28;20285;-73
2023/07/31 10:55:22;;;;;;;21.05;4.80;;;17.90;99.90;;;;;;5031429;28;20166;-71
2023/07/31 10:57:48;;;;;;;27.80;6.43;;;18.00;99.90;;;;;;5021401;28;20202;-72
2023/07/31 11:00:29;;;;;;;20.40;5.50;;;18.10;99.90;;;;;;5010322;28;20637;-74
2023/07/31 11:03:01;;;;;;;19.23;5.78;;;18.00;99.90;;;;;;5011734;28;20224;-73
2023/07/31 11:05:45;;;;;;;23.58;5.35;;;17.90;99.90;;;;;;5011998;28;20228;-72
2023/07/31 11:08:22;;;;;;;23.52;4.90;;;17.60;99.90;;;;;;5011715;28;20186;-73
2023/07/31 11:10:50;;;;;;;26.60;5.78;;;17.80;99.90;;;;;;5042338;28;20191;-72
2023/07/31 11:13:15;;;;;;;19.20;5.45;;;17.90;99.90;;;;;;5031234;28;20174;-71
2023/07/31 11:15:41;;;;;;;24.33;4.90;;;17.90;99.90;;;;;;5047377;28;20185;-72
2023/07/31 11:18:07;;;;;;;28.40;6.18;;;18.00;99.90;;;;;;5051045;28;20208;-74
2023/07/31 11:20:34;;;;;;;29.70;5.70;;;18.10;99.90;;;;;;5048857;28;20177;-74
2023/07/31 11:23:07;;;;;;;19.83;5.63;;;17.50;99.90;;;;;;5051141;28;20259;-74
2023/07/31 11:25:33;;;;;;;29.40;5.25;;;17.80;99.90;;;;;;5051640;28;20648;-73
2023/07/31 11:28:06;;;;;;;16.75;5.15;;;17.80;99.90;;;;;;5052386;28;20178;-72
2023/07/31 11:30:32;;;;;;;23.13;5.13;;;17.80;99.90;;;;;;5049645;28;20157;-72
2023/07/31 11:32:59;;;;;;;30.33;5.25;;;17.80;99.90;;;;;;5051268;28;20257;-74
2023/07/31 11:35:25;;;;;;;21.45;5.93;;;17.70;99.90;;;;;;5050922;28;20209;-75
2023/07/31 11:37:50;;;;;;;20.95;6.10;;;17.70;99.90;;;;;;5051113;28;20231;-74
2023/07/31 11:40:18;;;;;;;22.58;5.20;;;17.50;99.90;;;;;;5049386;28;20567;-74
2023/07/31 11:42:43;;;;;;;28.00;7.00;;;17.50;99.90;;;;;;5050486;28;20550;-74
2023/07/31 11:45:09;;;;;;;25.02;5.55;;;17.60;99.90;;;;;;5055439;28;20184;-79
2023/07/31 11:47:37;;;;;;;23.60;5.20;;;17.60;99.90;;;;;;5049178;28;20178;-75
2023/07/31 11:50:05;;;;;;;20.70;5.78;;;17.60;99.90;;;;;;5030889;28;20182;-74
2023/07/31 11:52:36;;;;;;;25.08;5.22;;;17.40;99.90;;;;;;5030875;28;20170;-73
2023/07/31 11:55:03;;;;;;;18.73;5.60;;;17.40;99.90;;;;;;5023573;28;20171;-73
2023/07/31 11:57:29;;;;;;;21.50;5.65;;;17.30;99.90;;;;;;5024593;28;20251;-74
2023/07/31 11:59:55;;;;;;;21.48;5.70;;;17.30;99.90;;;;;;5030234;28;20174;-75
2023/07/31 12:02:22;;;;;;;18.25;5.00;;;17.70;99.90;;;;;;5023486;28;20230;-81
2023/07/31 12:04:48;;;;;;;17.85;5.45;;;17.00;99.90;;;;;;5050825;28;20624;-77
2023/07/31 12:07:13;;;;;;;20.98;5.20;;;16.90;99.90;;;;;;5050494;28;20804;-73
2023/07/31 12:09:53;;;;;;;19.05;5.10;;;16.90;99.90;;;;;;5050718;28;20169;-77
2023/07/31 12:12:25;;;;;;;17.58;4.88;;;16.80;99.90;;;;;;5042165;28;20659;-76
2023/07/31 12:14:52;;;;;;;17.15;4.95;;;;;;;;;;5030721;28;20169;-75
2023/07/31 12:17:20;;;;;;;15.73;4.18;;;16.90;99.90;;;;;;5030951;28;20250;-75
2023/07/31 12:19:48;;;;;;;22.58;5.18;;;16.90;99.90;;;;;;5030757;28;20167;-77
2023/07/31 12:22:15;;;;;;;14.13;4.55;;;16.70;99.90;;;;;;5033618;28;20165;-77
2023/07/31 12:24:44;;;;;;;20.65;5.07;;;16.70;99.90;;;;;;5052267;28;20173;-72
2023/07/31 12:27:15;;;;;;;13.13;4.85;;;16.60;99.90;;;;;;5044825;28;20177;-74
2023/07/31 12:29:44;;;;;;;14.25;3.95;;;16.70;99.90;;;;;;5037424;28;20178;-73
2023/07/31 12:32:24;;;;;;;14.90;4.63;;;16.60;99.90;;;;;;5013832;28;20185;-74
2023/07/31 12:34:50;;;;;;;19.48;4.93;;;16.60;99.90;;;;;;5014513;28;20209;-73
2023/07/31 12:37:16;;;;;;;19.00;5.22;;;16.60;99.90;;;;;;5015171;28;20225;-73
2023/07/31 12:39:42;;;;;;;17.85;5.18;;;16.50;99.90;;;;;;5044057;28;20174;-72
2023/07/31 12:42:07;;;;;;;18.40;5.30;;;16.50;99.90;;;;;;5032958;28;20228;-74
2023/07/31 12:44:33;;;;;;;19.95;5.25;;;16.40;99.90;;;;;;5032874;28;20223;-73
2023/07/31 12:46:59;;;;;;;16.48;4.70;;;16.60;99.90;;;;;;5034220;28;20239;-73